Time;durP1;ratioP1;P1;durP2;ratioP2;P2;SDS_P1;SDS_P2;PMS_P1;PMS_P2;Temp;Humidity;BMP_temperature;BMP_pressure;BME280_temperature;BME280_humidity;BME280_pressure;Samples;Min_cycle;Max_cycle;Signal;HPM_P1;HPM_P2
2022/11/05 00:20:07;;;;;;;4.78;3.63;;;;;;;5.68;100.00;101365.34;5054381;28;20515;-85
2022/11/05 00:49:28;;;;;;;6.32;3.85;;;;;;;5.27;100.00;101393.97;5070478;28;20495;-85
2022/11/05 00:53:06;;;;;;;6.65;3.78;;;;;;;5.21;100.00;101407.22;5073412;28;20117;-85
2022/11/05 01:29:57;;;;;;;7.80;4.00;;;;;;;4.95;100.00;101445.00;5095577;28;20077;-85
2022/11/05 06:20:26;;;;;;;23.02;13.00;;;;;;;3.58;100.00;101510.97;5114762;27;20057;-85
2022/11/05 06:23:07;;;;;;;28.67;12.95;;;;;;;3.54;100.00;101507.75;5113672;28;20056;-93
2022/11/05 06:25:56;;;;;;;26.92;13.02;;;;;;;3.56;100.00;101500.41;5100221;28;20039;-91
2022/11/05 06:28:45;;;;;;;28.70;12.77;;;;;;;3.63;100.00;101514.91;5106027;28;20074;-95
2022/11/05 06:31:14;;;;;;;28.23;12.80;;;;;;;3.60;100.00;101511.66;5113761;28;20043;-86
2022/11/05 06:33:39;;;;;;;24.05;13.02;;;;;;;3.57;100.00;101511.97;5114589;28;20035;-85
2022/11/05 06:36:07;;;;;;;21.45;12.73;;;;;;;3.53;100.00;101514.13;5113968;28;20093;-85
2022/11/05 06:38:37;;;;;;;24.37;11.97;;;;;;;3.52;100.00;101523.16;5114666;28;20078;-85
2022/11/05 06:41:06;;;;;;;30.70;13.27;;;;;;;3.45;100.00;101514.88;5113187;28;20063;-84
2022/11/05 06:43:34;;;;;;;21.00;11.70;;;;;;;3.49;100.00;101526.16;5114107;28;20028;-85
2022/11/05 06:46:01;;;;;;;22.70;11.20;;;;;;;3.36;100.00;101518.47;5096634;28;20040;-84
2022/11/05 06:48:27;;;;;;;20.50;11.85;;;;;;;3.39;100.00;101518.16;5096041;28;20051;-84
2022/11/05 06:50:53;;;;;;;28.43;12.80;;;;;;;3.40;100.00;101517.19;5112983;28;20051;-84
2022/11/05 06:53:19;;;;;;;22.92;11.73;;;;;;;3.40;100.00;101516.34;5112900;28;20452;-84
2022/11/05 06:55:46;;;;;;;25.08;11.98;;;;;;;3.39;100.00;101510.13;5112706;28;20080;-84
2022/11/05 06:58:15;;;;;;;26.60;11.18;;;;;;;3.40;100.00;101519.03;5114181;28;20039;-85
2022/11/05 07:00:40;;;;;;;22.42;11.25;;;;;;;3.39;100.00;101518.16;5095940;28;20044;-84
2022/11/05 07:03:09;;;;;;;26.73;12.32;;;;;;;3.48;100.00;101535.19;5114227;28;20042;-84
2022/11/05 07:05:38;;;;;;;24.33;12.55;;;;;;;3.50;100.00;101533.22;5113318;28;20044;-84
2022/11/05 07:08:04;;;;;;;27.75;12.65;;;;;;;3.51;100.00;101538.44;5113031;28;20468;-84
2022/11/05 07:10:30;;;;;;;23.15;11.40;;;;;;;3.54;100.00;101547.16;5114291;28;20046;-84
2022/11/05 07:12:55;;;;;;;25.50;12.13;;;;;;;3.51;100.00;101541.13;5116944;28;20042;-84
2022/11/05 07:15:20;;;;;;;23.80;12.05;;;;;;;3.59;100.00;101545.72;5099695;28;20044;-84
2022/11/05 07:17:46;;;;;;;25.50;12.20;;;;;;;3.60;100.00;101541.19;5118571;28;20036;-84
2022/11/05 07:20:11;;;;;;;23.07;12.27;;;;;;;3.54;100.00;101534.56;5116920;28;20476;-85
2022/11/05 07:22:43;;;;;;;25.50;11.93;;;;;;;3.62;100.00;101548.09;5116848;28;20048;-84
2022/11/05 07:25:08;;;;;;;25.05;12.38;;;;;;;3.66;100.00;101553.97;5116714;28;20031;-84
2022/11/05 07:27:38;;;;;;;25.70;12.70;;;;;;;3.63;100.00;101547.09;5082898;28;20039;-84
2022/11/05 07:30:07;;;;;;;24.52;12.35;;;;;;;3.68;100.00;101552.00;5099739;28;20544;-84
2022/11/05 07:32:37;;;;;;;21.38;11.95;;;;;;;3.68;100.00;101544.78;5133682;27;20058;-84
2022/11/05 07:35:03;;;;;;;23.48;12.27;;;;;;;3.71;100.00;101551.69;5116729;28;20525;-84
2022/11/05 07:37:29;;;;;;;23.13;11.97;;;;;;;3.78;100.00;101559.97;5117616;28;20035;-84
2022/11/05 07:39:54;;;;;;;21.33;11.37;;;;;;;3.83;100.00;101565.75;5116481;28;20460;-85
2022/11/05 07:42:19;;;;;;;24.17;12.70;;;;;;;3.83;100.00;101560.38;5099459;28;20044;-85
2022/11/05 07:44:47;;;;;;;24.45;12.00;;;;;;;3.89;100.00;101561.59;5099444;28;20281;-84
2022/11/05 07:47:12;;;;;;;26.55;12.77;;;;;;;3.89;100.00;101559.75;5116345;28;20072;-84
2022/11/05 07:49:38;;;;;;;25.63;12.38;;;;;;;4.00;100.00;101574.78;5116370;28;20464;-84
2022/11/05 07:52:03;;;;;;;26.53;13.23;;;;;;;4.04;100.00;101581.53;5099231;28;20047;-84
2022/11/05 07:54:29;;;;;;;30.43;13.50;;;;;;;4.01;100.00;101573.78;5116150;28;20047;-84
2022/11/05 07:56:54;;;;;;;36.92;12.95;;;;;;;4.11;100.00;101568.34;5133242;27;20488;-85
2022/11/05 07:59:20;;;;;;;22.27;12.90;;;;;;;4.13;100.00;101571.69;5116158;28;20038;-85
2022/11/05 08:01:45;;;;;;;20.40;12.63;;;;;;;4.16;100.00;101572.25;5099014;28;20409;-84
2022/11/05 08:04:13;;;;;;;28.77;13.30;;;;;;;4.27;100.00;101571.16;5115643;28;20038;-84
2022/11/05 08:06:38;;;;;;;29.65;13.02;;;;;;;4.30;100.00;101570.00;5115917;28;20119;-86
2022/11/05 08:09:04;;;;;;;28.87;13.83;;;;;;;4.35;100.00;101570.34;5115451;28;20045;-85
2022/11/05 08:11:30;;;;;;;31.48;13.77;;;;;;;4.41;100.00;101569.72;5132589;27;20055;-86
2022/11/05 08:13:58;;;;;;;32.55;13.40;;;;;;;4.41;100.00;101564.34;5115379;28;20040;-85
2022/11/05 08:16:23;;;;;;;29.90;14.00;;;;;;;4.47;100.00;101565.56;5116127;28;20085;-85
2022/11/05 08:18:51;;;;;;;23.63;12.77;;;;;;;4.61;100.00;101572.22;5132457;27;20036;-85
2022/11/05 08:21:19;;;;;;;29.17;13.98;;;;;;;4.64;100.00;101561.16;5096326;28;20387;-85
2022/11/05 08:23:46;;;;;;;27.75;14.05;;;;;;;4.67;100.00;101558.97;5114911;28;20153;-86
2022/11/05 08:26:14;;;;;;;28.30;13.70;;;;;;;4.79;100.00;101559.56;5115522;28;20092;-85
2022/11/05 08:28:44;;;;;;;25.73;11.88;;;;;;;4.86;100.00;101557.91;5132721;27;20400;-85
2022/11/05 08:31:14;;;;;;;26.88;14.40;;;;;;;4.92;100.00;101554.56;5117439;28;20464;-85
2022/11/05 08:33:39;;;;;;;26.13;13.55;;;;;;;5.03;100.00;101558.81;5115867;27;20040;-85
2022/11/05 08:36:08;;;;;;;24.02;12.38;;;;;;;5.09;100.00;101560.03;5117242;28;20119;-85
2022/11/05 08:38:35;;;;;;;32.80;13.43;;;;;;;5.13;100.00;101557.88;5115807;28;20058;-85
2022/11/05 08:41:03;;;;;;;28.33;12.57;;;;;;;5.28;100.00;101569.69;5132557;27;20039;-85
2022/11/05 08:43:29;;;;;;;18.50;10.77;;;;;;;5.32;100.00;101567.53;5116635;28;20044;-85
2022/11/05 08:45:58;;;;;;;26.50;12.40;;;;;;;5.40;100.00;101563.03;5115180;28;20039;-85
2022/11/05 08:48:26;;;;;;;21.98;12.50;;;;;;;5.50;100.00;101567.41;5132297;27;20578;-86
2022/11/05 08:50:54;;;;;;;31.05;12.68;;;;;;;5.55;100.00;101556.97;5098456;28;20036;-85
2022/11/05 08:53:22;;;;;;;23.35;12.00;;;;;;;5.71;100.00;101569.63;5114999;28;20035;-85
2022/11/05 08:55:49;;;;;;;21.15;10.25;;;;;;;5.74;100.00;101567.47;5081132;28;20040;-85
2022/11/05 08:58:15;;;;;;;20.38;11.57;;;;;;;5.80;100.00;101564.09;5114797;28;20097;-85
2022/11/05 09:00:46;;;;;;;23.17;11.10;;;;;;;5.92;100.00;101564.63;5115952;28;20040;-86
2022/11/05 09:03:14;;;;;;;22.27;11.38;;;;;;;5.98;100.00;101563.16;5115627;28;20039;-86
2022/11/05 09:05:41;;;;;;;19.88;11.20;;;;;;;6.09;100.00;101570.88;5115754;28;20368;-86
2022/11/05 09:08:11;;;;;;;19.27;10.93;;;;;;;6.15;100.00;101564.81;5114731;28;20036;-86
2022/11/05 09:10:37;;;;;;;28.40;11.02;;;;;;;6.23;100.00;101564.00;5115739;27;20063;-86
2022/11/05 09:13:07;;;;;;;18.00;9.98;;;;;;;6.39;100.00;101576.63;5115511;28;20074;-86
2022/11/05 09:15:35;;;;;;;16.15;9.55;;;;;;;6.45;100.00;101564.28;5115012;28;20035;-86
2022/11/05 09:18:07;;;;;;;16.85;10.40;;;;;;;6.63;100.00;101567.63;5131348;27;20089;-87
2022/11/05 09:20:35;;;;;;;17.10;9.75;;;;;;;6.71;100.00;101564.06;5114511;28;20484;-87
2022/11/05 09:23:00;;;;;;;17.65;9.60;;;;;;;6.85;100.00;101557.16;5115553;28;20039;-86
2022/11/05 09:25:28;;;;;;;15.02;9.13;;;;;;;6.99;100.00;101563.66;5131562;27;20035;-86
2022/11/05 09:28:05;;;;;;;16.77;9.20;;;;;;;7.10;100.00;101566.00;5114298;28;20134;-87
2022/11/05 09:30:33;;;;;;;14.27;9.23;;;;;;;7.20;100.00;101563.94;5114633;28;20039;-87
2022/11/05 09:33:01;;;;;;;15.68;8.73;;;;;;;7.30;100.00;101554.75;5131203;27;20045;-86
2022/11/05 09:35:32;;;;;;;13.48;7.97;;;;;;;7.43;100.00;101571.22;5131085;27;20032;-86
2022/11/05 09:37:58;;;;;;;18.13;8.00;;;;;;;7.58;100.00;101576.72;5114312;28;20536;-86
2022/11/05 09:40:24;;;;;;;17.17;6.90;;;;;;;7.67;100.00;101572.09;5113821;28;20039;-87
2022/11/05 09:42:53;;;;;;;13.93;7.85;;;;;;;7.81;100.00;101575.88;5131207;27;20032;-86
2022/11/05 09:45:29;;;;;;;13.73;7.40;;;;;;;7.95;100.00;101587.78;5115374;27;20031;-87
2022/11/05 09:48:02;;;;;;;13.20;6.07;;;;;;;8.13;100.00;101590.19;5131203;27;20035;-86
2022/11/05 09:50:41;;;;;;;12.85;6.53;;;;;;;8.35;100.00;101585.78;5114727;28;20035;-87
2022/11/05 09:53:15;;;;;;;12.23;6.95;;;;;;;8.59;100.00;101573.91;5130520;27;20118;-86
2022/11/05 09:55:44;;;;;;;16.52;7.15;;;;;;;8.98;100.00;101580.13;5130839;27;20040;-86
2022/11/05 09:58:30;;;;;;;13.32;6.38;;;;;;;9.38;99.75;101589.59;5130743;27;20035;-86
2022/11/05 10:00:57;;;;;;;9.43;6.03;;;;;;;9.48;97.85;101581.19;5113881;28;20050;-86
2022/11/05 10:03:25;;;;;;;11.00;5.53;;;;;;;9.58;96.11;101586.28;5131088;27;20036;-86
2022/11/05 10:05:52;;;;;;;11.18;5.78;;;;;;;9.52;96.09;101590.59;5113726;28;20181;-86
2022/11/05 10:08:33;;;;;;;;;;;;;;;;;;;;;
2022/11/05 10:11:27;;;;;;;10.90;5.30;;;;;;;9.64;94.87;101601.75;5115554;28;20037;-87
2022/11/05 10:13:57;;;;;;;8.80;5.40;;;;;;;9.73;94.13;101599.78;5113788;28;20446;-87
2022/11/05 10:16:33;;;;;;;8.77;4.80;;;;;;;9.84;92.47;101608.25;5130576;27;20031;-87
2022/11/05 10:19:23;;;;;;;;;;;;;;;;;;;;;
2022/11/05 10:22:00;;;;;;;9.00;5.25;;;;;;;9.96;91.01;101626.72;5114954;28;20039;-87
2022/11/05 10:24:26;;;;;;;13.65;5.68;;;;;;;9.94;91.75;101620.66;5130780;27;20118;-87
2022/11/05 10:26:53;;;;;;;12.82;6.20;;;;;;;9.96;91.44;101610.47;5130407;27;20537;-87
2022/11/05 10:29:28;;;;;;;12.68;5.20;;;;;;;10.05;91.40;101624.75;5112872;28;20485;-87
2022/11/05 10:31:55;;;;;;;10.30;5.70;;;;;;;9.91;89.29;101615.63;5114870;28;20171;-87
2022/11/05 10:34:27;;;;;;;11.23;5.43;;;;;;;9.90;89.42;101631.03;5114689;28;20027;-87
2022/11/05 10:36:53;;;;;;;14.05;5.32;;;;;;;9.81;89.95;101629.50;5130504;27;20031;-87
2022/11/05 10:39:23;;;;;;;13.10;5.73;;;;;;;9.86;90.60;101623.50;5130338;27;20138;-88
2022/11/05 10:42:10;;;;;;;7.40;5.43;;;;;;;10.01;91.48;101627.00;5130288;27;20074;-87
2022/11/05 10:44:57;;;;;;;16.83;5.40;;;;;;;10.10;89.99;101623.13;5112930;28;20169;-88
2022/11/05 10:47:48;;;;;;;8.27;5.07;;;;;;;10.14;90.10;101626.28;5112296;28;20043;-87
2022/11/05 10:50:20;;;;;;;9.65;5.82;;;;;;;10.03;89.29;101610.53;5112664;28;20032;-88
2022/11/05 10:53:00;;;;;;;10.70;5.72;;;;;;;10.07;89.31;101603.69;5112778;28;20487;-87
2022/11/05 10:55:36;;;;;;;10.65;5.03;;;;;;;10.22;89.14;101617.19;5129993;27;20557;-87
2022/11/05 10:58:38;;;;;;;8.27;5.28;;;;;;;10.32;89.73;101598.72;5130716;27;20368;-87
2022/11/05 11:01:09;;;;;;;10.90;5.90;;;;;;;10.36;88.12;101605.44;5113502;28;20063;-87
2022/11/05 11:03:56;;;;;;;13.75;5.47;;;;;;;10.48;87.84;101609.31;5129215;28;20096;-87
2022/11/05 11:06:38;;;;;;;10.40;5.68;;;;;;;10.58;86.67;101613.56;5130071;28;20057;-87
2022/11/05 11:09:19;;;;;;;11.90;6.30;;;;;;;10.64;87.83;101599.19;5112688;28;20038;-88
2022/11/05 11:11:44;;;;;;;10.43;5.75;;;;;;;10.93;85.15;101606.28;5114040;28;20055;-87
2022/11/05 11:14:15;;;;;;;14.37;6.13;;;;;;;11.06;84.78;101614.53;5112821;28;20124;-87
2022/11/05 11:16:46;;;;;;;10.90;4.85;;;;;;;11.04;83.70;101604.88;5112389;28;20032;-88
2022/11/05 11:19:35;;;;;;;13.55;6.13;;;;;;;11.19;85.45;101596.63;5129547;28;20044;-88
2022/11/05 11:22:10;;;;;;;9.23;5.10;;;;;;;11.82;81.22;101606.47;5111821;28;20055;-88
2022/11/05 11:24:48;;;;;;;12.85;5.43;;;;;;;12.03;78.89;101600.06;5112642;28;20176;-87
2022/11/05 11:27:26;;;;;;;10.43;5.00;;;;;;;12.68;78.13;101578.53;5112752;28;20545;-88
2022/11/05 11:30:08;;;;;;;8.70;4.63;;;;;;;14.36;72.07;101582.16;5112236;28;20044;-88
2022/11/05 11:35:46;;;;;;;9.43;4.60;;;;;;;17.10;59.09;101571.25;5011785;28;20087;-89
2022/11/05 11:38:26;;;;;;;9.95;4.45;;;;;;;17.32;55.53;101585.97;5109613;28;20035;-89
2022/11/05 11:41:11;;;;;;;7.82;4.15;;;;;;;18.08;55.52;101578.66;5114255;28;20032;-89
2022/11/05 11:43:45;;;;;;;9.85;4.40;;;;;;;19.84;49.26;101572.56;5114242;28;20043;-89
2022/11/05 11:46:23;;;;;;;5.50;3.57;;;;;;;20.63;49.70;101589.50;5112722;28;20062;-89
2022/11/05 11:48:50;;;;;;;7.15;4.15;;;;;;;21.85;44.57;101576.53;5113934;28;20038;-89
2022/11/05 11:51:24;;;;;;;7.95;4.05;;;;;;;22.10;43.62;101577.66;5129066;28;20031;-90
2022/11/05 11:54:04;;;;;;;10.43;4.55;;;;;;;21.96;41.62;101566.34;5112352;28;20036;-90
2022/11/05 11:59:58;;;;;;;6.13;3.67;;;;;;;24.30;37.14;101576.03;5098428;28;20549;-90
2022/11/05 12:13:03;;;;;;;6.35;3.95;;;;;;;25.52;35.66;101569.41;5117627;28;20030;-90
2022/11/05 12:30:21;;;;;;;7.55;3.78;;;;;;;16.62;51.37;101554.00;5074205;28;20109;-89
2022/11/05 12:36:35;;;;;;;10.68;3.42;;;;;;;16.28;53.90;101551.84;5074649;28;20091;-89
2022/11/05 12:42:44;;;;;;;5.70;3.42;;;;;;;14.65;59.07;101541.59;5074011;28;20130;-89
2022/11/05 12:55:37;;;;;;;5.50;2.85;;;;;;;13.55;61.53;101534.66;5074116;28;20055;-88
2022/11/05 13:01:40;;;;;;;6.90;2.90;;;;;;;13.48;63.48;101526.53;5074008;28;20101;-88
2022/11/05 13:18:21;;;;;;;6.13;2.70;;;;;;;21.06;48.33;101504.81;5074429;28;20055;-89
2022/11/05 13:20:51;;;;;;;3.90;2.20;;;;;;;22.82;40.71;101492.69;5074365;28;20036;-89
2022/11/05 13:26:53;;;;;;;4.97;2.40;;;;;;;20.23;45.96;101495.22;5072791;28;20055;-87
2022/11/05 13:32:48;;;;;;;6.78;2.22;;;;;;;17.87;48.17;101483.00;5099447;28;20486;-88
2022/11/05 13:41:32;;;;;;;5.85;2.20;;;;;;;15.09;56.35;101493.16;5092985;28;20115;-85
2022/11/05 13:44:16;;;;;;;4.30;1.85;;;;;;;14.70;57.63;101480.81;5075882;28;20044;-85
2022/11/05 13:47:10;;;;;;;6.07;2.05;;;;;;;14.35;59.30;101476.75;5075511;28;20040;-85
2022/11/05 13:49:53;;;;;;;6.37;2.00;;;;;;;14.00;60.62;101477.28;5075518;28;20124;-85
2022/11/05 13:52:30;;;;;;;6.07;1.83;;;;;;;13.97;61.13;101483.19;5093137;28;20099;-86
2022/11/05 13:55:16;;;;;;;5.72;2.45;;;;;;;13.66;62.45;101484.88;5075221;28;20170;-85
2022/11/05 13:57:45;;;;;;;3.40;1.92;;;;;;;13.51;62.51;101489.81;5092329;28;20044;-84
2022/11/05 14:00:23;;;;;;;6.35;2.78;;;;;;;13.08;63.69;101469.47;5092726;28;20044;-85
2022/11/05 14:03:04;;;;;;;6.30;2.83;;;;;;;12.71;65.92;101474.66;5092817;28;20044;-85
2022/11/05 14:05:36;;;;;;;7.15;2.30;;;;;;;12.69;66.14;101482.19;5094593;28;20040;-85
2022/11/05 14:08:09;;;;;;;5.50;2.17;;;;;;;12.58;66.38;101488.31;5094413;28;20032;-85
2022/11/05 14:10:38;;;;;;;6.57;2.35;;;;;;;12.35;67.22;101477.88;5094469;28;20036;-85
2022/11/05 14:13:16;;;;;;;7.07;2.50;;;;;;;12.35;68.20;101475.16;5093265;28;20036;-85
2022/11/05 14:15:58;;;;;;;5.83;2.70;;;;;;;12.36;68.33;101483.09;5094658;28;20059;-85
2022/11/05 14:18:23;;;;;;;5.50;2.58;;;;;;;12.36;68.45;101488.53;5094087;28;20091;-85
2022/11/05 14:21:01;;;;;;;8.10;2.70;;;;;;;12.36;68.42;101482.28;5092980;28;20052;-85
2022/11/05 14:23:39;;;;;;;7.43;3.00;;;;;;;12.16;69.79;101474.94;5093511;28;20388;-85
2022/11/05 14:26:32;;;;;;;5.18;2.25;;;;;;;12.06;69.11;101472.66;5099633;28;20047;-85
2022/11/05 14:29:03;;;;;;;6.38;2.50;;;;;;;11.91;70.83;101474.72;5109404;28;20032;-84
2022/11/05 14:31:53;;;;;;;8.27;2.60;;;;;;;11.78;71.51;101481.00;5113313;28;20031;-85
2022/11/05 14:34:52;;;;;;;6.47;2.30;;;;;;;11.77;71.40;101479.31;5100190;28;20039;-85
2022/11/05 14:37:27;;;;;;;8.95;2.75;;;;;;;11.59;73.04;101471.78;5114075;28;20050;-85
2022/11/05 14:39:55;;;;;;;7.47;2.42;;;;;;;11.55;73.51;101475.94;5114727;28;20058;-85
2022/11/05 14:42:32;;;;;;;6.93;2.17;;;;;;;11.46;73.91;101475.31;5129821;27;20035;-86
2022/11/05 14:45:00;;;;;;;5.65;2.50;;;;;;;11.38;74.61;101484.50;5113757;28;20035;-85
2022/11/05 14:47:32;;;;;;;8.40;3.20;;;;;;;11.29;74.67;101482.16;5112958;28;20387;-86
2022/11/05 14:50:08;;;;;;;5.05;2.65;;;;;;;11.28;75.02;101483.19;5114126;28;20040;-86
2022/11/05 14:52:39;;;;;;;7.72;2.60;;;;;;;11.24;75.16;101485.50;5113729;28;20364;-85
2022/11/05 14:55:06;;;;;;;7.80;2.60;;;;;;;11.17;75.60;101481.91;5113842;28;20039;-86
2022/11/05 14:57:40;;;;;;;8.43;2.78;;;;;;;11.13;76.57;101486.06;5113133;28;20124;-85
2022/11/05 15:00:30;;;;;;;9.10;3.33;;;;;;;11.12;76.15;101485.25;5112815;28;20057;-85
2022/11/05 15:03:21;;;;;;;7.50;2.88;;;;;;;11.08;76.97;101483.16;5112661;28;20039;-86
2022/11/05 15:05:47;;;;;;;6.55;2.42;;;;;;;11.04;77.09;101483.56;5112990;28;20039;-86
2022/11/05 15:08:31;;;;;;;4.10;2.20;;;;;;;11.03;76.88;101478.31;5113316;28;20118;-86
2022/11/05 15:11:22;;;;;;;7.43;2.70;;;;;;;10.98;77.54;101475.38;5112676;28;20036;-85
2022/11/05 15:13:53;;;;;;;9.05;2.58;;;;;;;11.01;78.27;101483.97;5129891;28;20028;-86
2022/11/05 15:16:43;;;;;;;8.50;2.65;;;;;;;11.02;78.13;101472.03;5112268;28;20036;-86
2022/11/05 15:19:41;;;;;;;8.33;2.43;;;;;;;10.98;77.86;101476.19;5113305;28;20118;-86
2022/11/05 15:22:19;;;;;;;5.60;2.60;;;;;;;10.90;79.12;101468.25;5096474;28;20039;-85
2022/11/05 15:24:48;;;;;;;6.97;2.70;;;;;;;10.84;79.27;101467.16;5112200;28;20046;-85
2022/11/05 15:27:34;;;;;;;6.00;2.15;;;;;;;10.81;79.14;101473.00;5112195;28;20079;-86
2022/11/05 15:30:12;;;;;;;9.55;2.42;;;;;;;10.74;80.47;101471.31;5130343;28;20036;-86
2022/11/05 15:32:41;;;;;;;8.33;2.40;;;;;;;10.67;80.23;101469.41;5115482;28;20043;-85
2022/11/05 15:35:28;;;;;;;9.77;2.65;;;;;;;10.58;80.43;101465.16;5116692;28;20034;-85
2022/11/05 15:37:56;;;;;;;8.82;2.97;;;;;;;10.52;81.86;101460.53;5133584;27;20081;-85
2022/11/05 15:40:28;;;;;;;8.38;2.53;;;;;;;10.48;82.21;101473.66;5133240;27;20035;-85
2022/11/05 15:43:19;;;;;;;5.82;2.58;;;;;;;10.50;81.69;101468.03;5133945;27;20074;-85
2022/11/05 15:46:27;;;;;;;6.07;2.30;;;;;;;10.43;81.54;101469.88;5116213;28;20488;-86
2022/11/05 15:49:13;;;;;;;6.35;2.10;;;;;;;10.38;82.00;101454.19;5037938;28;20033;-85
2022/11/05 15:51:38;;;;;;;8.90;2.58;;;;;;;10.30;83.33;101459.72;5116364;28;20043;-85
2022/11/05 15:54:04;;;;;;;6.07;2.37;;;;;;;10.27;82.93;101462.84;5115761;28;20028;-85
2022/11/05 15:56:39;;;;;;;8.13;2.30;;;;;;;10.30;82.83;101465.16;5117054;28;20043;-85
2022/11/05 15:59:26;;;;;;;4.87;2.00;;;;;;;10.23;83.09;101457.00;5116340;28;20078;-85
2022/11/05 16:01:56;;;;;;;7.78;2.28;;;;;;;10.19;84.19;101467.38;5117468;28;20040;-85
2022/11/05 16:04:25;;;;;;;7.18;2.40;;;;;;;10.14;83.87;101469.00;5132987;27;20055;-85
2022/11/05 16:06:58;;;;;;;5.50;1.98;;;;;;;10.17;84.23;101468.59;5116992;28;20043;-85
2022/11/05 16:09:30;;;;;;;6.43;2.40;;;;;;;10.13;83.92;101461.94;5133436;27;20036;-85
2022/11/05 16:12:22;;;;;;;9.30;2.60;;;;;;;10.14;83.68;101452.75;5115845;28;20068;-85
2022/11/05 16:15:03;;;;;;;8.43;2.20;;;;;;;10.13;84.12;101460.03;5117076;28;20495;-86
2022/11/05 16:17:53;;;;;;;3.65;2.22;;;;;;;10.10;84.64;101457.72;5117717;28;20121;-85
2022/11/05 16:20:23;;;;;;;4.20;2.13;;;;;;;10.16;84.33;101453.41;5105704;28;20424;-85
2022/11/05 16:22:58;;;;;;;8.45;2.47;;;;;;;10.07;84.35;101450.00;5116571;28;20483;-85
2022/11/05 16:25:39;;;;;;;11.63;2.37;;;;;;;10.06;85.18;101445.59;5131652;27;20097;-85
2022/11/05 16:28:19;;;;;;;5.10;2.05;;;;;;;10.01;85.39;101439.94;5116138;28;20044;-85
2022/11/05 16:31:10;;;;;;;7.45;2.60;;;;;;;10.02;84.94;101438.88;5115465;28;20041;-85
2022/11/05 16:33:48;;;;;;;12.32;2.83;;;;;;;10.01;85.69;101448.06;5113397;28;20038;-86
2022/11/05 16:36:16;;;;;;;4.55;2.00;;;;;;;9.99;85.92;101447.41;5115227;28;20042;-85
2022/11/05 16:38:41;;;;;;;5.93;2.23;;;;;;;9.98;86.13;101446.59;5115734;28;20054;-85
2022/11/05 16:41:12;;;;;;;9.82;2.90;;;;;;;9.96;86.23;101443.22;5116612;28;20039;-86
2022/11/05 16:43:38;;;;;;;11.77;2.50;;;;;;;9.95;86.66;101441.56;5118008;28;20040;-85
2022/11/05 16:46:10;;;;;;;9.35;3.17;;;;;;;9.97;86.31;101442.19;5120439;28;20471;-83
2022/11/05 16:48:35;;;;;;;7.63;2.80;;;;;;;9.94;86.93;101439.06;5118104;27;20172;-84
2022/11/05 16:51:03;;;;;;;7.07;2.60;;;;;;;9.93;87.01;101440.06;5115175;28;20056;-84
2022/11/05 16:53:29;;;;;;;4.88;2.15;;;;;;;9.93;87.02;101440.06;5116270;27;20028;-84
2022/11/05 16:55:54;;;;;;;6.63;2.40;;;;;;;9.90;87.46;101438.59;5115092;28;20475;-84
2022/11/05 16:58:24;;;;;;;5.47;2.40;;;;;;;9.86;88.05;101440.00;5115335;28;20543;-84
2022/11/05 17:00:51;;;;;;;10.30;3.30;;;;;;;9.84;88.18;101439.38;5114851;28;20119;-84
2022/11/05 17:03:17;;;;;;;6.43;3.00;;;;;;;9.86;88.03;101436.47;5131679;27;20027;-84
2022/11/05 17:05:46;;;;;;;6.23;2.60;;;;;;;9.81;88.36;101432.47;5115784;28;20039;-84
2022/11/05 17:08:11;;;;;;;7.18;2.45;;;;;;;9.81;88.78;101437.06;5115904;28;20344;-84
2022/11/05 17:10:37;;;;;;;10.30;2.45;;;;;;;9.87;88.22;101440.88;5116042;28;20042;-84
2022/11/05 17:13:05;;;;;;;7.83;2.90;;;;;;;9.84;89.10;101451.03;5116044;28;20540;-83
2022/11/05 17:15:34;;;;;;;9.63;2.53;;;;;;;9.82;89.17;101441.47;5114897;28;20048;-84
2022/11/05 17:18:00;;;;;;;6.10;2.47;;;;;;;9.81;89.45;101442.47;5114910;28;20050;-84
2022/11/05 17:20:36;;;;;;;9.93;2.45;;;;;;;9.82;89.67;101453.13;5131708;27;20043;-84
2022/11/05 17:23:03;;;;;;;4.77;2.40;;;;;;;9.78;89.47;101454.53;5116446;28;20032;-84
2022/11/05 17:25:28;;;;;;;6.22;2.60;;;;;;;9.79;89.55;101450.81;5131132;27;20036;-84
2022/11/05 17:27:54;;;;;;;7.37;2.73;;;;;;;9.78;90.22;101443.72;5114846;28;20044;-84
2022/11/05 17:30:25;;;;;;;8.15;2.97;;;;;;;9.75;90.68;101438.69;5131512;27;20445;-84
2022/11/05 17:32:51;;;;;;;8.38;3.45;;;;;;;9.74;90.50;101431.56;5132003;27;20063;-83
2022/11/05 17:35:17;;;;;;;8.83;2.70;;;;;;;9.75;90.21;101427.00;5131514;27;20412;-84
2022/11/05 17:37:42;;;;;;;5.53;2.67;;;;;;;9.82;89.88;101439.56;5115266;28;20106;-84
2022/11/05 17:40:14;;;;;;;8.50;2.80;;;;;;;9.76;90.32;101434.94;5116035;28;20040;-83
2022/11/05 17:42:39;;;;;;;5.72;2.60;;;;;;;9.77;90.55;101439.34;5115807;28;20043;-84
2022/11/05 17:45:05;;;;;;;6.73;3.00;;;;;;;9.78;90.11;101446.41;5113998;28;20043;-84
2022/11/05 17:47:31;;;;;;;5.70;2.78;;;;;;;9.73;90.78;101445.31;5113009;28;20384;-84
2022/11/05 17:49:59;;;;;;;4.87;2.50;;;;;;;9.74;90.50;101463.25;5113769;28;20042;-84
2022/11/05 17:52:26;;;;;;;7.40;3.00;;;;;;;9.78;90.27;101454.53;5130903;27;20043;-83
2022/11/05 17:54:52;;;;;;;5.25;2.80;;;;;;;9.79;90.02;101456.22;5113738;28;20040;-84
2022/11/05 17:57:17;;;;;;;11.63;3.20;;;;;;;9.70;90.50;101456.56;5096800;28;20104;-83
2022/11/05 17:59:54;;;;;;;9.67;3.07;;;;;;;9.71;90.69;101469.91;5113557;28;20031;-83
2022/11/05 18:02:23;;;;;;;7.68;3.38;;;;;;;9.65;91.13;101471.53;5113986;28;20031;-84
2022/11/05 18:04:50;;;;;;;6.22;3.22;;;;;;;9.71;90.77;101474.50;5115131;28;20118;-84
2022/11/05 18:07:16;;;;;;;8.38;3.03;;;;;;;9.63;90.88;101468.16;5115143;28;20114;-83
2022/11/05 18:09:41;;;;;;;12.20;3.60;;;;;;;9.64;91.21;101480.69;5114269;28;20154;-83
2022/11/05 18:12:07;;;;;;;9.00;3.70;;;;;;;9.62;91.11;101480.03;5113268;28;20074;-84
2022/11/05 18:14:34;;;;;;;7.57;3.50;;;;;;;9.59;91.33;101482.31;5130344;27;20556;-83
2022/11/05 18:16:59;;;;;;;12.10;4.00;;;;;;;9.56;91.34;101475.41;5113132;28;20062;-83
2022/11/05 18:19:28;;;;;;;12.77;5.23;;;;;;;9.55;91.60;101475.59;5130820;27;20044;-83
2022/11/05 18:22:02;;;;;;;9.43;4.60;;;;;;;9.54;91.70;101472.06;5113218;28;20050;-83
2022/11/05 18:24:28;;;;;;;8.55;3.85;;;;;;;9.52;91.69;101471.38;5113677;28;20047;-82
2022/11/05 18:26:55;;;;;;;10.23;4.50;;;;;;;9.64;90.40;101485.25;5130550;27;20180;-83
2022/11/05 18:29:21;;;;;;;7.93;4.10;;;;;;;9.59;90.44;101474.19;5113112;28;20502;-84
2022/11/05 18:31:46;;;;;;;9.98;4.80;;;;;;;9.55;90.54;101473.75;5130554;27;20071;-83
2022/11/05 18:34:12;;;;;;;12.70;4.83;;;;;;;9.52;90.29;101465.13;5113211;28;20051;-84
2022/11/05 18:36:37;;;;;;;11.60;4.70;;;;;;;9.52;90.54;101470.56;5112414;28;20039;-84
2022/11/05 18:39:05;;;;;;;9.57;4.33;;;;;;;9.47;90.35;101465.72;5112476;28;20106;-84
2022/11/05 18:41:34;;;;;;;8.30;5.00;;;;;;;9.45;90.86;101476.75;5112886;28;20039;-84
2022/11/05 18:44:01;;;;;;;11.80;4.97;;;;;;;9.43;90.47;101480.69;5113974;28;20024;-84
2022/11/05 18:46:34;;;;;;;8.75;5.50;;;;;;;9.38;91.00;101470.44;5130138;27;20039;-84
2022/11/05 18:48:59;;;;;;;15.55;6.05;;;;;;;9.39;90.74;101471.25;5128360;27;20088;-84
2022/11/05 18:51:25;;;;;;;11.63;5.07;;;;;;;9.42;90.44;101482.56;5113130;28;20118;-84
2022/11/05 18:53:52;;;;;;;12.35;5.47;;;;;;;9.39;90.75;101482.09;5112562;28;20420;-85
2022/11/05 18:56:25;;;;;;;12.25;5.38;;;;;;;9.35;91.12;101481.66;5114295;28;20120;-85
2022/11/05 18:58:54;;;;;;;12.60;5.00;;;;;;;9.40;90.92;101491.91;5114157;28;20480;-85
2022/11/05 19:01:28;;;;;;;9.35;5.07;;;;;;;9.38;90.74;101481.25;5113935;28;20031;-84
2022/11/05 19:03:55;;;;;;;9.00;5.40;;;;;;;9.33;91.40;101480.16;5130106;28;20122;-85
2022/11/05 19:06:21;;;;;;;11.23;5.63;;;;;;;9.29;91.20;101475.13;5112820;28;20031;-84
2022/11/05 19:08:50;;;;;;;10.23;5.70;;;;;;;9.28;91.75;101464.47;5114276;28;20038;-85
2022/11/05 19:11:20;;;;;;;11.77;5.35;;;;;;;9.25;91.50;101460.28;5113802;28;20108;-85
2022/11/05 19:13:46;;;;;;;10.35;6.28;;;;;;;9.26;91.72;101469.25;5114316;28;20444;-84
2022/11/05 19:16:18;;;;;;;7.57;4.90;;;;;;;9.30;91.00;101455.16;5129549;28;20032;-84